Bear Creek, NC (27207)

3:00 AM EST on February 22, 2017 (GMT -0500)
Mount Vernon Springs | | Change Station

Elev 636 ft 35.65 °N, 79.47 °W | Updated 11 minutes ago

Mostly Cloudy
Mostly Cloudy
52.7 °F
Feels Like 52.7 °F
N
2.7
Wind Variable Wind from ESE

Today
High -- | Low -- °F
--% Chance of Precip.
Yesterday
High -- | Low -- °F
Precip. -- in
Pressure 30.04 in
Visibility 10.0 miles
Clouds Mostly Cloudy 3300 ft
Overcast 4200 ft
Dew Point 46 °F
Humidity 79%
Rainfall 0.00 in
Snow Depth Not available.
6:55 AM 6:06 PM
Waning Crescent, 19% visible
METAR KTTA 220800Z AUTO 00000KT 10SM BKN033 OVC042 09/07 A3004 RMK AO2 T00920072
Pressure 30.04 in
Visibility 10.0 miles
Clouds Mostly Cloudy 3300 ft
Overcast 4200 ft
Dew Point 46 °F
Humidity 79%
Rainfall 0.00 in
Snow Depth Not available.
6:55 AM 6:06 PM
Waning Crescent, 19% visible
METAR KTTA 220800Z AUTO 00000KT 10SM BKN033 OVC042 09/07 A3004 RMK AO2 T00920072

Get Your Daily Forecast Email!

Thanks for signing up!

Be on the lookout for a verification email in your inbox.

You'll start receiving the daily forecast at 8 AM.

×

10-Day Weather Forecast

Almanac

Astronomy

Feb. 22, 2017 Rise Set
Actual Time
Civil Twilight
Nautical Twilight
Astronomical Twilight
Moon
Length of Visible Light
Length of Day
Tomorrow will be .
, % of the Moon is Illuminated

Today's Extremes

State Highs State Lows

Community

WunderPhotos

Upload Photos

1,962,540 photos uploaded!

WunderBlog® & News

Nearby

Air Quality

  Air Quality AQ Index Pollutant
Not available.

Snow Depth

Station Depth Elevation

Earthquake Activity

City Distance Mag. Time & Date
Minimum magnitude displayed is 2.5.

Coastal Water Temperatures

Place Temperature

Stations

Nearby Weather Stations

Station Location Temp. Windchill Dew Point Humidity Wind Precip. Elev Updated Type
                   

Watches & Warnings

There are currently no watches in effect.